sensor_id;sensor_type;location;lat;lon;timestamp;P1;durP1;ratioP1;P2;durP2;ratioP2
25988;SDS011;13778;48.236;9.894;2022-10-16T00:03:28;8.50;;;3.35;;
25988;SDS011;13778;48.236;9.894;2022-10-16T00:06:20;6.80;;;3.30;;
25988;SDS011;13778;48.236;9.894;2022-10-16T00:09:10;5.95;;;3.33;;
25988;SDS011;13778;48.236;9.894;2022-10-16T00:12:01;5.53;;;3.10;;
25988;SDS011;13778;48.236;9.894;2022-10-16T00:14:54;5.43;;;3.30;;
25988;SDS011;13778;48.236;9.894;2022-10-16T00:17:44;4.05;;;2.97;;
25988;SDS011;13778;48.236;9.894;2022-10-16T00:20:35;5.45;;;3.15;;
25988;SDS011;13778;48.236;9.894;2022-10-16T00:23:26;11.63;;;4.15;;
25988;SDS011;13778;48.236;9.894;2022-10-16T00:26:17;6.10;;;4.38;;
25988;SDS011;13778;48.236;9.894;2022-10-16T00:29:08;4.25;;;3.38;;
25988;SDS011;13778;48.236;9.894;2022-10-16T00:32:00;4.28;;;2.83;;
25988;SDS011;13778;48.236;9.894;2022-10-16T00:37:43;5.60;;;2.58;;
25988;SDS011;13778;48.236;9.894;2022-10-16T00:40:34;5.25;;;3.00;;
25988;SDS011;13778;48.236;9.894;2022-10-16T00:43:39;8.00;;;2.78;;
25988;SDS011;13778;48.236;9.894;2022-10-16T00:46:33;7.53;;;2.80;;
25988;SDS011;13778;48.236;9.894;2022-10-16T00:49:26;5.07;;;2.75;;
25988;SDS011;13778;48.236;9.894;2022-10-16T00:55:07;10.05;;;3.10;;
25988;SDS011;13778;48.236;9.894;2022-10-16T00:57:59;6.88;;;2.28;;
25988;SDS011;13778;48.236;9.894;2022-10-16T01:00:50;7.28;;;2.42;;
25988;SDS011;13778;48.236;9.894;2022-10-16T01:03:40;5.65;;;2.30;;
25988;SDS011;13778;48.236;9.894;2022-10-16T01:06:33;3.92;;;2.50;;
25988;SDS011;13778;48.236;9.894;2022-10-16T01:09:27;10.52;;;2.70;;
25988;SDS011;13778;48.236;9.894;2022-10-16T01:12:22;4.35;;;2.42;;
25988;SDS011;13778;48.236;9.894;2022-10-16T01:15:14;11.15;;;2.38;;
25988;SDS011;13778;48.236;9.894;2022-10-16T01:18:08;9.55;;;2.38;;
25988;SDS011;13778;48.236;9.894;2022-10-16T01:21:02;4.20;;;2.33;;
25988;SDS011;13778;48.236;9.894;2022-10-16T01:23:57;8.27;;;2.70;;
25988;SDS011;13778;48.236;9.894;2022-10-16T01:29:48;3.42;;;2.80;;
25988;SDS011;13778;48.236;9.894;2022-10-16T01:32:40;4.03;;;2.70;;
25988;SDS011;13778;48.236;9.894;2022-10-16T01:35:32;5.07;;;2.92;;
25988;SDS011;13778;48.236;9.894;2022-10-16T01:38:25;6.25;;;3.75;;
25988;SDS011;13778;48.236;9.894;2022-10-16T01:41:19;4.90;;;3.10;;
25988;SDS011;13778;48.236;9.894;2022-10-16T01:44:11;4.75;;;2.33;;
25988;SDS011;13778;48.236;9.894;2022-10-16T01:47:05;3.97;;;2.30;;
25988;SDS011;13778;48.236;9.894;2022-10-16T01:49:57;7.22;;;2.67;;
25988;SDS011;13778;48.236;9.894;2022-10-16T01:52:49;4.80;;;2.73;;
25988;SDS011;13778;48.236;9.894;2022-10-16T01:55:41;7.88;;;3.42;;
25988;SDS011;13778;48.236;9.894;2022-10-16T01:58:35;3.70;;;2.50;;
25988;SDS011;13778;48.236;9.894;2022-10-16T02:01:27;4.55;;;2.47;;
25988;SDS011;13778;48.236;9.894;2022-10-16T02:04:21;7.95;;;2.90;;
25988;SDS011;13778;48.236;9.894;2022-10-16T02:07:13;4.22;;;2.85;;
25988;SDS011;13778;48.236;9.894;2022-10-16T02:10:04;6.65;;;2.63;;
25988;SDS011;13778;48.236;9.894;2022-10-16T02:12:56;5.05;;;2.78;;
25988;SDS011;13778;48.236;9.894;2022-10-16T02:15:49;11.80;;;3.58;;
25988;SDS011;13778;48.236;9.894;2022-10-16T02:18:40;5.22;;;2.30;;
25988;SDS011;13778;48.236;9.894;2022-10-16T02:21:34;4.97;;;2.60;;
25988;SDS011;13778;48.236;9.894;2022-10-16T02:24:29;7.25;;;2.97;;
25988;SDS011;13778;48.236;9.894;2022-10-16T02:27:22;4.30;;;3.00;;
25988;SDS011;13778;48.236;9.894;2022-10-16T02:30:16;10.05;;;3.35;;
25988;SDS011;13778;48.236;9.894;2022-10-16T02:33:08;11.05;;;4.07;;
25988;SDS011;13778;48.236;9.894;2022-10-16T02:38:51;5.65;;;3.45;;
25988;SDS011;13778;48.236;9.894;2022-10-16T02:41:42;9.82;;;3.80;;
25988;SDS011;13778;48.236;9.894;2022-10-16T02:44:32;7.32;;;3.42;;
25988;SDS011;13778;48.236;9.894;2022-10-16T02:47:23;6.00;;;3.40;;
25988;SDS011;13778;48.236;9.894;2022-10-16T02:50:14;5.38;;;2.70;;
25988;SDS011;13778;48.236;9.894;2022-10-16T02:53:04;9.20;;;3.00;;
25988;SDS011;13778;48.236;9.894;2022-10-16T02:55:56;9.93;;;3.10;;
25988;SDS011;13778;48.236;9.894;2022-10-16T02:58:47;4.60;;;2.63;;
25988;SDS011;13778;48.236;9.894;2022-10-16T03:01:37;8.05;;;3.22;;
25988;SDS011;13778;48.236;9.894;2022-10-16T03:04:28;7.13;;;3.30;;
25988;SDS011;13778;48.236;9.894;2022-10-16T03:07:18;6.07;;;2.70;;
25988;SDS011;13778;48.236;9.894;2022-10-16T03:10:09;4.88;;;2.90;;
25988;SDS011;13778;48.236;9.894;2022-10-16T03:13:01;4.35;;;2.45;;
25988;SDS011;13778;48.236;9.894;2022-10-16T03:15:51;7.38;;;2.60;;
25988;SDS011;13778;48.236;9.894;2022-10-16T03:18:42;3.45;;;2.58;;
25988;SDS011;13778;48.236;9.894;2022-10-16T03:21:32;3.22;;;2.65;;
25988;SDS011;13778;48.236;9.894;2022-10-16T03:24:23;10.77;;;3.28;;
25988;SDS011;13778;48.236;9.894;2022-10-16T03:27:14;3.30;;;2.75;;
25988;SDS011;13778;48.236;9.894;2022-10-16T03:30:06;5.53;;;2.78;;
25988;SDS011;13778;48.236;9.894;2022-10-16T03:32:57;3.78;;;2.45;;
25988;SDS011;13778;48.236;9.894;2022-10-16T03:35:50;5.68;;;2.88;;
25988;SDS011;13778;48.236;9.894;2022-10-16T03:38:41;6.72;;;2.80;;
25988;SDS011;13778;48.236;9.894;2022-10-16T03:41:31;10.43;;;3.33;;
25988;SDS011;13778;48.236;9.894;2022-10-16T03:44:22;8.25;;;3.25;;
25988;SDS011;13778;48.236;9.894;2022-10-16T03:47:14;6.20;;;3.10;;
25988;SDS011;13778;48.236;9.894;2022-10-16T03:50:05;7.25;;;3.20;;
25988;SDS011;13778;48.236;9.894;2022-10-16T03:52:56;4.05;;;3.05;;
25988;SDS011;13778;48.236;9.894;2022-10-16T03:55:46;9.48;;;2.80;;
25988;SDS011;13778;48.236;9.894;2022-10-16T03:58:37;8.35;;;3.00;;
25988;SDS011;13778;48.236;9.894;2022-10-16T04:01:27;6.68;;;2.90;;
25988;SDS011;13778;48.236;9.894;2022-10-16T04:04:19;5.10;;;2.40;;
25988;SDS011;13778;48.236;9.894;2022-10-16T04:07:10;7.80;;;2.72;;
25988;SDS011;13778;48.236;9.894;2022-10-16T04:10:00;7.25;;;2.75;;
25988;SDS011;13778;48.236;9.894;2022-10-16T04:12:51;6.57;;;3.03;;
25988;SDS011;13778;48.236;9.894;2022-10-16T04:15:44;7.03;;;2.92;;
25988;SDS011;13778;48.236;9.894;2022-10-16T04:18:34;5.03;;;2.77;;
25988;SDS011;13778;48.236;9.894;2022-10-16T04:21:26;5.90;;;2.85;;
25988;SDS011;13778;48.236;9.894;2022-10-16T04:24:16;5.82;;;2.85;;
25988;SDS011;13778;48.236;9.894;2022-10-16T04:27:07;9.07;;;4.20;;
25988;SDS011;13778;48.236;9.894;2022-10-16T04:29:57;12.15;;;4.50;;
25988;SDS011;13778;48.236;9.894;2022-10-16T04:32:48;6.53;;;4.22;;
25988;SDS011;13778;48.236;9.894;2022-10-16T04:35:38;8.57;;;3.97;;
25988;SDS011;13778;48.236;9.894;2022-10-16T04:38:30;7.72;;;4.38;;
25988;SDS011;13778;48.236;9.894;2022-10-16T04:41:21;4.85;;;3.53;;
25988;SDS011;13778;48.236;9.894;2022-10-16T04:44:11;7.18;;;3.20;;
25988;SDS011;13778;48.236;9.894;2022-10-16T04:47:02;7.80;;;3.85;;
25988;SDS011;13778;48.236;9.894;2022-10-16T04:49:53;6.57;;;3.60;;
25988;SDS011;13778;48.236;9.894;2022-10-16T04:52:44;7.78;;;3.42;;
25988;SDS011;13778;48.236;9.894;2022-10-16T04:55:35;6.90;;;3.13;;
25988;SDS011;13778;48.236;9.894;2022-10-16T04:58:26;6.30;;;3.08;;
25988;SDS011;13778;48.236;9.894;2022-10-16T05:01:16;9.98;;;3.25;;
25988;SDS011;13778;48.236;9.894;2022-10-16T05:04:07;8.52;;;3.53;;
25988;SDS011;13778;48.236;9.894;2022-10-16T05:06:57;6.80;;;3.33;;
25988;SDS011;13778;48.236;9.894;2022-10-16T05:09:48;9.35;;;3.70;;
25988;SDS011;13778;48.236;9.894;2022-10-16T05:12:40;5.22;;;2.90;;
25988;SDS011;13778;48.236;9.894;2022-10-16T05:15:30;8.07;;;2.55;;
25988;SDS011;13778;48.236;9.894;2022-10-16T05:18:20;7.18;;;3.10;;
25988;SDS011;13778;48.236;9.894;2022-10-16T05:21:11;7.72;;;2.65;;
25988;SDS011;13778;48.236;9.894;2022-10-16T05:24:02;8.77;;;2.85;;
25988;SDS011;13778;48.236;9.894;2022-10-16T05:26:52;4.85;;;2.70;;
25988;SDS011;13778;48.236;9.894;2022-10-16T05:29:44;8.13;;;3.55;;
25988;SDS011;13778;48.236;9.894;2022-10-16T05:32:34;6.70;;;3.10;;
25988;SDS011;13778;48.236;9.894;2022-10-16T05:35:25;4.50;;;2.88;;
25988;SDS011;13778;48.236;9.894;2022-10-16T05:38:15;8.05;;;2.65;;
25988;SDS011;13778;48.236;9.894;2022-10-16T05:41:06;2.92;;;2.60;;
25988;SDS011;13778;48.236;9.894;2022-10-16T05:43:56;6.10;;;2.47;;
25988;SDS011;13778;48.236;9.894;2022-10-16T05:46:48;3.42;;;2.80;;
25988;SDS011;13778;48.236;9.894;2022-10-16T05:49:38;7.55;;;3.20;;
25988;SDS011;13778;48.236;9.894;2022-10-16T05:52:29;7.20;;;2.83;;
25988;SDS011;13778;48.236;9.894;2022-10-16T05:55:19;4.53;;;2.50;;
25988;SDS011;13778;48.236;9.894;2022-10-16T05:58:10;6.47;;;2.90;;
25988;SDS011;13778;48.236;9.894;2022-10-16T06:01:02;4.70;;;2.50;;
25988;SDS011;13778;48.236;9.894;2022-10-16T06:03:54;4.05;;;2.75;;
25988;SDS011;13778;48.236;9.894;2022-10-16T06:09:35;5.47;;;2.95;;
25988;SDS011;13778;48.236;9.894;2022-10-16T06:12:26;4.05;;;3.15;;
25988;SDS011;13778;48.236;9.894;2022-10-16T06:15:16;10.73;;;3.30;;
25988;SDS011;13778;48.236;9.894;2022-10-16T06:18:07;4.45;;;3.65;;
25988;SDS011;13778;48.236;9.894;2022-10-16T06:20:59;5.70;;;3.22;;
25988;SDS011;13778;48.236;9.894;2022-10-16T06:23:49;4.70;;;3.25;;
25988;SDS011;13778;48.236;9.894;2022-10-16T06:26:40;9.18;;;3.63;;
25988;SDS011;13778;48.236;9.894;2022-10-16T06:29:30;9.82;;;3.90;;
25988;SDS011;13778;48.236;9.894;2022-10-16T06:32:21;6.50;;;2.80;;
25988;SDS011;13778;48.236;9.894;2022-10-16T06:35:12;4.38;;;2.60;;
25988;SDS011;13778;48.236;9.894;2022-10-16T06:38:03;3.50;;;2.40;;
25988;SDS011;13778;48.236;9.894;2022-10-16T06:43:46;6.18;;;3.20;;
25988;SDS011;13778;48.236;9.894;2022-10-16T06:46:37;6.20;;;2.80;;
25988;SDS011;13778;48.236;9.894;2022-10-16T06:49:27;11.63;;;3.40;;
25988;SDS011;13778;48.236;9.894;2022-10-16T06:52:18;5.82;;;2.75;;
25988;SDS011;13778;48.236;9.894;2022-10-16T06:55:10;4.38;;;2.42;;
25988;SDS011;13778;48.236;9.894;2022-10-16T06:58:00;7.75;;;2.90;;
25988;SDS011;13778;48.236;9.894;2022-10-16T07:00:54;8.68;;;2.65;;
25988;SDS011;13778;48.236;9.894;2022-10-16T07:03:45;9.13;;;2.88;;
25988;SDS011;13778;48.236;9.894;2022-10-16T07:06:35;8.00;;;3.40;;
25988;SDS011;13778;48.236;9.894;2022-10-16T07:09:26;6.10;;;3.13;;
25988;SDS011;13778;48.236;9.894;2022-10-16T07:12:18;4.80;;;2.58;;
25988;SDS011;13778;48.236;9.894;2022-10-16T07:15:08;8.65;;;3.20;;
25988;SDS011;13778;48.236;9.894;2022-10-16T07:17:58;14.95;;;3.70;;
25988;SDS011;13778;48.236;9.894;2022-10-16T07:20:49;6.95;;;2.90;;
25988;SDS011;13778;48.236;9.894;2022-10-16T07:23:40;6.38;;;3.15;;
25988;SDS011;13778;48.236;9.894;2022-10-16T07:26:31;7.18;;;2.88;;
25988;SDS011;13778;48.236;9.894;2022-10-16T07:32:14;5.78;;;3.20;;
25988;SDS011;13778;48.236;9.894;2022-10-16T07:35:05;8.45;;;2.92;;
25988;SDS011;13778;48.236;9.894;2022-10-16T07:37:56;7.32;;;3.03;;
25988;SDS011;13778;48.236;9.894;2022-10-16T07:40:46;6.47;;;3.30;;
25988;SDS011;13778;48.236;9.894;2022-10-16T07:43:37;6.20;;;3.50;;
25988;SDS011;13778;48.236;9.894;2022-10-16T07:46:27;7.05;;;3.05;;
25988;SDS011;13778;48.236;9.894;2022-10-16T07:49:19;4.57;;;3.10;;
25988;SDS011;13778;48.236;9.894;2022-10-16T07:55:00;7.65;;;2.85;;
25988;SDS011;13778;48.236;9.894;2022-10-16T07:57:50;8.60;;;2.80;;
25988;SDS011;13778;48.236;9.894;2022-10-16T08:00:41;6.00;;;2.70;;
25988;SDS011;13778;48.236;9.894;2022-10-16T08:03:31;5.55;;;2.97;;
25988;SDS011;13778;48.236;9.894;2022-10-16T08:06:23;5.45;;;3.13;;
25988;SDS011;13778;48.236;9.894;2022-10-16T08:12:04;5.20;;;2.92;;
25988;SDS011;13778;48.236;9.894;2022-10-16T08:14:54;3.45;;;2.90;;
25988;SDS011;13778;48.236;9.894;2022-10-16T08:17:53;3.15;;;2.85;;
25988;SDS011;13778;48.236;9.894;2022-10-16T08:20:43;5.35;;;3.10;;
25988;SDS011;13778;48.236;9.894;2022-10-16T08:23:35;8.57;;;3.88;;
25988;SDS011;13778;48.236;9.894;2022-10-16T08:29:16;8.00;;;3.08;;
25988;SDS011;13778;48.236;9.894;2022-10-16T08:32:07;3.58;;;2.80;;
25988;SDS011;13778;48.236;9.894;2022-10-16T08:34:57;3.92;;;3.00;;
25988;SDS011;13778;48.236;9.894;2022-10-16T08:37:48;5.47;;;2.95;;
25988;SDS011;13778;48.236;9.894;2022-10-16T08:40:41;8.77;;;3.10;;
25988;SDS011;13778;48.236;9.894;2022-10-16T08:43:35;3.40;;;2.80;;
25988;SDS011;13778;48.236;9.894;2022-10-16T08:46:35;6.80;;;3.40;;
25988;SDS011;13778;48.236;9.894;2022-10-16T08:49:26;49.65;;;15.90;;
25988;SDS011;13778;48.236;9.894;2022-10-16T08:52:17;36.22;;;13.90;;
25988;SDS011;13778;48.236;9.894;2022-10-16T08:55:08;32.83;;;15.82;;
25988;SDS011;13778;48.236;9.894;2022-10-16T08:58:12;22.17;;;9.02;;
25988;SDS011;13778;48.236;9.894;2022-10-16T09:01:03;8.85;;;3.95;;
25988;SDS011;13778;48.236;9.894;2022-10-16T09:03:58;6.93;;;4.15;;
25988;SDS011;13778;48.236;9.894;2022-10-16T09:06:53;4.47;;;3.03;;
25988;SDS011;13778;48.236;9.894;2022-10-16T09:09:49;6.95;;;3.35;;
25988;SDS011;13778;48.236;9.894;2022-10-16T09:12:44;5.45;;;3.47;;
25988;SDS011;13778;48.236;9.894;2022-10-16T09:15:39;7.07;;;3.72;;
25988;SDS011;13778;48.236;9.894;2022-10-16T09:18:34;3.42;;;3.03;;
25988;SDS011;13778;48.236;9.894;2022-10-16T09:21:27;5.95;;;4.20;;
25988;SDS011;13778;48.236;9.894;2022-10-16T09:24:19;4.25;;;3.10;;
25988;SDS011;13778;48.236;9.894;2022-10-16T09:27:11;5.50;;;3.15;;
25988;SDS011;13778;48.236;9.894;2022-10-16T09:30:06;6.47;;;3.00;;
25988;SDS011;13778;48.236;9.894;2022-10-16T09:33:01;6.75;;;3.78;;
25988;SDS011;13778;48.236;9.894;2022-10-16T09:35:52;9.70;;;3.70;;
25988;SDS011;13778;48.236;9.894;2022-10-16T09:38:43;5.90;;;3.10;;
25988;SDS011;13778;48.236;9.894;2022-10-16T09:41:34;14.88;;;3.45;;
25988;SDS011;13778;48.236;9.894;2022-10-16T09:44:26;3.80;;;2.67;;
25988;SDS011;13778;48.236;9.894;2022-10-16T09:47:18;3.45;;;2.58;;
25988;SDS011;13778;48.236;9.894;2022-10-16T09:50:22;6.03;;;3.10;;
25988;SDS011;13778;48.236;9.894;2022-10-16T09:53:14;6.72;;;2.80;;
25988;SDS011;13778;48.236;9.894;2022-10-16T09:56:06;5.90;;;2.47;;
25988;SDS011;13778;48.236;9.894;2022-10-16T09:58:58;4.67;;;2.80;;
25988;SDS011;13778;48.236;9.894;2022-10-16T10:01:49;3.87;;;2.60;;
25988;SDS011;13778;48.236;9.894;2022-10-16T10:07:32;5.82;;;2.65;;
25988;SDS011;13778;48.236;9.894;2022-10-16T10:10:24;3.97;;;2.40;;
25988;SDS011;13778;48.236;9.894;2022-10-16T10:13:17;5.18;;;2.38;;
25988;SDS011;13778;48.236;9.894;2022-10-16T10:16:08;5.35;;;2.00;;
25988;SDS011;13778;48.236;9.894;2022-10-16T10:18:58;3.42;;;2.03;;
25988;SDS011;13778;48.236;9.894;2022-10-16T10:21:49;3.80;;;1.92;;
25988;SDS011;13778;48.236;9.894;2022-10-16T10:24:41;1.75;;;1.48;;
25988;SDS011;13778;48.236;9.894;2022-10-16T10:27:33;5.82;;;2.00;;
25988;SDS011;13778;48.236;9.894;2022-10-16T10:30:27;3.85;;;2.00;;
25988;SDS011;13778;48.236;9.894;2022-10-16T10:33:21;2.95;;;2.00;;
25988;SDS011;13778;48.236;9.894;2022-10-16T10:36:20;3.22;;;1.70;;
25988;SDS011;13778;48.236;9.894;2022-10-16T10:39:14;3.70;;;1.77;;
25988;SDS011;13778;48.236;9.894;2022-10-16T10:42:14;5.90;;;1.70;;
25988;SDS011;13778;48.236;9.894;2022-10-16T10:45:11;3.47;;;1.57;;
25988;SDS011;13778;48.236;9.894;2022-10-16T10:48:11;2.60;;;1.65;;
25988;SDS011;13778;48.236;9.894;2022-10-16T10:51:06;4.72;;;1.60;;
25988;SDS011;13778;48.236;9.894;2022-10-16T10:54:03;5.38;;;1.52;;
25988;SDS011;13778;48.236;9.894;2022-10-16T10:56:58;3.35;;;1.60;;
25988;SDS011;13778;48.236;9.894;2022-10-16T11:03:02;3.22;;;1.38;;
25988;SDS011;13778;48.236;9.894;2022-10-16T11:05:59;4.90;;;1.90;;
25988;SDS011;13778;48.236;9.894;2022-10-16T11:08:51;2.80;;;1.52;;
25988;SDS011;13778;48.236;9.894;2022-10-16T11:11:44;1.70;;;1.40;;
25988;SDS011;13778;48.236;9.894;2022-10-16T11:14:36;2.50;;;1.55;;
25988;SDS011;13778;48.236;9.894;2022-10-16T11:17:29;3.85;;;1.90;;
25988;SDS011;13778;48.236;9.894;2022-10-16T11:20:24;1.92;;;1.40;;
25988;SDS011;13778;48.236;9.894;2022-10-16T11:23:16;3.90;;;1.45;;
25988;SDS011;13778;48.236;9.894;2022-10-16T11:26:11;1.88;;;1.33;;
25988;SDS011;13778;48.236;9.894;2022-10-16T11:29:03;4.47;;;1.83;;
25988;SDS011;13778;48.236;9.894;2022-10-16T11:31:57;4.40;;;1.92;;
25988;SDS011;13778;48.236;9.894;2022-10-16T11:34:49;1.92;;;1.33;;
25988;SDS011;13778;48.236;9.894;2022-10-16T11:37:43;8.40;;;1.60;;
25988;SDS011;13778;48.236;9.894;2022-10-16T11:40:35;2.95;;;1.70;;
25988;SDS011;13778;48.236;9.894;2022-10-16T11:43:31;3.60;;;1.50;;
25988;SDS011;13778;48.236;9.894;2022-10-16T11:46:22;2.13;;;1.73;;
25988;SDS011;13778;48.236;9.894;2022-10-16T11:49:14;2.53;;;1.20;;
25988;SDS011;13778;48.236;9.894;2022-10-16T11:52:06;2.03;;;1.50;;
25988;SDS011;13778;48.236;9.894;2022-10-16T11:55:02;1.52;;;1.38;;
25988;SDS011;13778;48.236;9.894;2022-10-16T11:57:54;2.05;;;1.30;;
25988;SDS011;13778;48.236;9.894;2022-10-16T12:00:47;2.35;;;1.05;;
25988;SDS011;13778;48.236;9.894;2022-10-16T12:03:44;1.00;;;0.90;;
25988;SDS011;13778;48.236;9.894;2022-10-16T12:06:37;1.48;;;1.20;;
25988;SDS011;13778;48.236;9.894;2022-10-16T12:09:31;4.75;;;1.58;;
25988;SDS011;13778;48.236;9.894;2022-10-16T12:12:24;4.63;;;1.42;;
25988;SDS011;13778;48.236;9.894;2022-10-16T12:15:19;5.00;;;1.35;;
25988;SDS011;13778;48.236;9.894;2022-10-16T12:18:20;3.92;;;1.10;;
25988;SDS011;13778;48.236;9.894;2022-10-16T12:21:11;2.28;;;1.40;;
25988;SDS011;13778;48.236;9.894;2022-10-16T12:24:05;4.20;;;1.17;;
25988;SDS011;13778;48.236;9.894;2022-10-16T12:26:55;1.75;;;1.23;;
25988;SDS011;13778;48.236;9.894;2022-10-16T12:29:47;1.65;;;1.40;;
25988;SDS011;13778;48.236;9.894;2022-10-16T12:32:44;4.70;;;2.95;;
25988;SDS011;13778;48.236;9.894;2022-10-16T12:35:43;7.65;;;4.30;;
25988;SDS011;13778;48.236;9.894;2022-10-16T12:38:36;4.05;;;1.73;;
25988;SDS011;13778;48.236;9.894;2022-10-16T12:41:28;1.85;;;1.75;;
25988;SDS011;13778;48.236;9.894;2022-10-16T12:44:22;2.93;;;1.30;;
25988;SDS011;13778;48.236;9.894;2022-10-16T12:47:20;3.95;;;1.50;;
25988;SDS011;13778;48.236;9.894;2022-10-16T12:50:31;3.47;;;1.40;;
25988;SDS011;13778;48.236;9.894;2022-10-16T12:53:22;2.58;;;1.50;;
25988;SDS011;13778;48.236;9.894;2022-10-16T12:56:14;3.10;;;1.20;;
25988;SDS011;13778;48.236;9.894;2022-10-16T12:59:09;1.20;;;1.10;;
25988;SDS011;13778;48.236;9.894;2022-10-16T13:02:08;1.80;;;1.63;;
25988;SDS011;13778;48.236;9.894;2022-10-16T13:05:11;1.55;;;1.10;;
25988;SDS011;13778;48.236;9.894;2022-10-16T13:08:09;6.10;;;1.25;;
25988;SDS011;13778;48.236;9.894;2022-10-16T13:11:07;2.15;;;1.55;;
25988;SDS011;13778;48.236;9.894;2022-10-16T13:14:07;1.30;;;1.10;;
25988;SDS011;13778;48.236;9.894;2022-10-16T13:17:01;3.63;;;1.08;;
25988;SDS011;13778;48.236;9.894;2022-10-16T13:19:59;1.42;;;1.33;;
25988;SDS011;13778;48.236;9.894;2022-10-16T13:22:56;3.28;;;1.35;;
25988;SDS011;13778;48.236;9.894;2022-10-16T13:25:53;4.80;;;1.27;;
25988;SDS011;13778;48.236;9.894;2022-10-16T13:28:49;3.95;;;1.60;;
25988;SDS011;13778;48.236;9.894;2022-10-16T13:31:40;2.47;;;1.35;;
25988;SDS011;13778;48.236;9.894;2022-10-16T13:34:30;2.88;;;1.30;;
25988;SDS011;13778;48.236;9.894;2022-10-16T13:37:22;2.28;;;1.25;;
25988;SDS011;13778;48.236;9.894;2022-10-16T13:40:17;4.95;;;1.13;;
25988;SDS011;13778;48.236;9.894;2022-10-16T13:43:08;3.47;;;1.30;;
25988;SDS011;13778;48.236;9.894;2022-10-16T13:46:00;3.75;;;1.27;;
25988;SDS011;13778;48.236;9.894;2022-10-16T13:48:58;4.15;;;1.30;;
25988;SDS011;13778;48.236;9.894;2022-10-16T13:51:55;2.90;;;1.42;;
25988;SDS011;13778;48.236;9.894;2022-10-16T13:54:46;2.22;;;1.58;;
25988;SDS011;13778;48.236;9.894;2022-10-16T13:57:38;2.45;;;1.35;;
25988;SDS011;13778;48.236;9.894;2022-10-16T14:03:19;5.35;;;1.40;;
25988;SDS011;13778;48.236;9.894;2022-10-16T14:06:11;3.15;;;1.40;;
25988;SDS011;13778;48.236;9.894;2022-10-16T14:09:04;2.60;;;1.35;;
25988;SDS011;13778;48.236;9.894;2022-10-16T14:11:56;7.97;;;2.05;;
25988;SDS011;13778;48.236;9.894;2022-10-16T14:14:49;1.90;;;1.40;;
25988;SDS011;13778;48.236;9.894;2022-10-16T14:17:43;1.20;;;1.20;;
25988;SDS011;13778;48.236;9.894;2022-10-16T14:20:34;1.25;;;1.15;;
25988;SDS011;13778;48.236;9.894;2022-10-16T14:23:27;1.40;;;1.13;;
25988;SDS011;13778;48.236;9.894;2022-10-16T14:26:19;2.10;;;1.20;;
25988;SDS011;13778;48.236;9.894;2022-10-16T14:29:11;1.45;;;1.20;;
25988;SDS011;13778;48.236;9.894;2022-10-16T14:32:04;1.83;;;1.40;;
25988;SDS011;13778;48.236;9.894;2022-10-16T14:34:55;4.20;;;1.30;;
25988;SDS011;13778;48.236;9.894;2022-10-16T14:37:45;1.92;;;1.10;;
25988;SDS011;13778;48.236;9.894;2022-10-16T14:40:36;3.55;;;1.23;;
25988;SDS011;13778;48.236;9.894;2022-10-16T14:43:30;2.05;;;1.40;;
25988;SDS011;13778;48.236;9.894;2022-10-16T14:46:21;1.67;;;1.13;;
25988;SDS011;13778;48.236;9.894;2022-10-16T14:49:16;2.88;;;1.02;;
25988;SDS011;13778;48.236;9.894;2022-10-16T14:52:09;3.55;;;1.25;;
25988;SDS011;13778;48.236;9.894;2022-10-16T14:55:00;4.28;;;1.25;;
25988;SDS011;13778;48.236;9.894;2022-10-16T14:57:51;3.47;;;1.48;;
25988;SDS011;13778;48.236;9.894;2022-10-16T15:00:41;1.52;;;1.35;;
25988;SDS011;13778;48.236;9.894;2022-10-16T15:03:32;3.35;;;1.50;;
25988;SDS011;13778;48.236;9.894;2022-10-16T15:06:24;4.32;;;1.42;;
25988;SDS011;13778;48.236;9.894;2022-10-16T15:09:15;2.72;;;1.65;;
25988;SDS011;13778;48.236;9.894;2022-10-16T15:12:05;1.90;;;1.33;;
25988;SDS011;13778;48.236;9.894;2022-10-16T15:14:56;3.15;;;1.42;;
25988;SDS011;13778;48.236;9.894;2022-10-16T15:17:46;2.78;;;1.20;;
25988;SDS011;13778;48.236;9.894;2022-10-16T15:20:37;1.95;;;1.73;;
25988;SDS011;13778;48.236;9.894;2022-10-16T15:23:29;7.05;;;1.67;;
25988;SDS011;13778;48.236;9.894;2022-10-16T15:26:20;2.67;;;1.83;;
25988;SDS011;13778;48.236;9.894;2022-10-16T15:29:10;6.50;;;2.33;;
25988;SDS011;13778;48.236;9.894;2022-10-16T15:32:01;2.33;;;1.75;;
25988;SDS011;13778;48.236;9.894;2022-10-16T15:34:51;1.95;;;1.73;;
25988;SDS011;13778;48.236;9.894;2022-10-16T15:37:42;5.22;;;2.20;;
25988;SDS011;13778;48.236;9.894;2022-10-16T15:40:34;4.30;;;1.95;;
25988;SDS011;13778;48.236;9.894;2022-10-16T15:43:24;1.95;;;1.70;;
25988;SDS011;13778;48.236;9.894;2022-10-16T15:46:15;2.70;;;1.67;;
25988;SDS011;13778;48.236;9.894;2022-10-16T15:51:57;1.75;;;1.40;;
25988;SDS011;13778;48.236;9.894;2022-10-16T15:54:47;3.75;;;1.83;;
25988;SDS011;13778;48.236;9.894;2022-10-16T15:57:39;3.72;;;1.60;;
25988;SDS011;13778;48.236;9.894;2022-10-16T16:00:31;4.00;;;1.55;;
25988;SDS011;13778;48.236;9.894;2022-10-16T16:03:22;3.97;;;1.35;;
25988;SDS011;13778;48.236;9.894;2022-10-16T16:06:13;5.10;;;1.40;;
25988;SDS011;13778;48.236;9.894;2022-10-16T16:09:04;3.80;;;1.45;;
25988;SDS011;13778;48.236;9.894;2022-10-16T16:11:54;4.35;;;1.83;;
25988;SDS011;13778;48.236;9.894;2022-10-16T16:14:46;5.60;;;1.67;;
25988;SDS011;13778;48.236;9.894;2022-10-16T16:17:38;5.15;;;1.70;;
25988;SDS011;13778;48.236;9.894;2022-10-16T16:20:28;2.60;;;1.50;;
25988;SDS011;13778;48.236;9.894;2022-10-16T16:23:19;4.68;;;1.75;;
25988;SDS011;13778;48.236;9.894;2022-10-16T16:26:10;5.82;;;1.55;;
25988;SDS011;13778;48.236;9.894;2022-10-16T16:29:01;4.72;;;1.77;;
25988;SDS011;13778;48.236;9.894;2022-10-16T16:31:53;4.63;;;1.63;;
25988;SDS011;13778;48.236;9.894;2022-10-16T16:34:46;2.45;;;1.35;;
25988;SDS011;13778;48.236;9.894;2022-10-16T16:37:36;4.10;;;1.85;;
25988;SDS011;13778;48.236;9.894;2022-10-16T16:40:27;2.95;;;1.60;;
25988;SDS011;13778;48.236;9.894;2022-10-16T16:43:17;3.85;;;1.90;;
25988;SDS011;13778;48.236;9.894;2022-10-16T16:46:08;6.13;;;3.50;;
25988;SDS011;13778;48.236;9.894;2022-10-16T16:49:01;4.63;;;3.37;;
25988;SDS011;13778;48.236;9.894;2022-10-16T16:51:52;6.55;;;4.40;;
25988;SDS011;13778;48.236;9.894;2022-10-16T16:54:42;5.10;;;2.92;;
25988;SDS011;13778;48.236;9.894;2022-10-16T16:57:40;2.72;;;2.03;;
25988;SDS011;13778;48.236;9.894;2022-10-16T17:00:30;2.85;;;1.90;;
25988;SDS011;13778;48.236;9.894;2022-10-16T17:03:21;4.18;;;2.08;;
25988;SDS011;13778;48.236;9.894;2022-10-16T17:06:13;4.47;;;2.08;;
25988;SDS011;13778;48.236;9.894;2022-10-16T17:09:04;2.75;;;2.33;;
25988;SDS011;13778;48.236;9.894;2022-10-16T17:11:55;3.88;;;2.80;;
25988;SDS011;13778;48.236;9.894;2022-10-16T17:14:45;6.30;;;3.25;;
25988;SDS011;13778;48.236;9.894;2022-10-16T17:17:36;5.50;;;3.83;;
25988;SDS011;13778;48.236;9.894;2022-10-16T17:20:26;3.80;;;2.33;;
25988;SDS011;13778;48.236;9.894;2022-10-16T17:23:18;6.32;;;3.38;;
25988;SDS011;13778;48.236;9.894;2022-10-16T17:26:10;4.00;;;2.60;;
25988;SDS011;13778;48.236;9.894;2022-10-16T17:29:00;4.70;;;3.00;;
25988;SDS011;13778;48.236;9.894;2022-10-16T17:31:51;6.82;;;3.40;;
25988;SDS011;13778;48.236;9.894;2022-10-16T17:34:41;12.93;;;3.72;;
25988;SDS011;13778;48.236;9.894;2022-10-16T17:37:31;9.20;;;3.10;;
25988;SDS011;13778;48.236;9.894;2022-10-16T17:40:23;8.88;;;3.42;;
25988;SDS011;13778;48.236;9.894;2022-10-16T17:43:14;11.68;;;4.75;;
25988;SDS011;13778;48.236;9.894;2022-10-16T17:46:04;11.02;;;6.43;;
25988;SDS011;13778;48.236;9.894;2022-10-16T17:48:55;9.05;;;5.30;;
25988;SDS011;13778;48.236;9.894;2022-10-16T17:51:45;8.10;;;4.90;;
25988;SDS011;13778;48.236;9.894;2022-10-16T17:54:38;16.60;;;5.38;;
25988;SDS011;13778;48.236;9.894;2022-10-16T17:57:30;11.68;;;4.97;;